Time;durP1;ratioP1;P1;durP2;ratioP2;P2;SDS_P1;SDS_P2;PMS_P1;PMS_P2;Temp;Humidity;BMP_temperature;BMP_pressure;BME280_temperature;BME280_humidity;BME280_pressure;Samples;Min_cycle;Max_cycle;Signal;HPM_P1;HPM_P2
2023/03/25 00:02:19;;;;;;;58.45;48.15;;;;;;;5.40;100.00;100707.41;5019140;28;20050;-78
2023/03/25 00:04:49;;;;;;;55.85;43.08;;;;;;;5.40;100.00;100701.34;5027852;28;20056;-78
2023/03/25 00:07:17;;;;;;;53.30;39.83;;;;;;;5.33;100.00;100700.38;5028752;28;20052;-78
2023/03/25 00:09:45;;;;;;;55.22;45.28;;;;;;;5.36;100.00;100700.84;5022948;28;20053;-78
2023/03/25 00:12:12;;;;;;;53.15;44.03;;;;;;;5.56;100.00;100697.78;5022889;28;20062;-78
2023/03/25 00:14:39;;;;;;;56.70;46.42;;;;;;;5.43;100.00;100695.72;5022061;28;20503;-78
2023/03/25 00:17:06;;;;;;;55.67;47.42;;;;;;;5.36;100.00;100694.78;5025136;28;20080;-78
2023/03/25 00:19:34;;;;;;;53.33;42.63;;;;;;;5.39;100.00;100689.16;5024415;28;20053;-78
2023/03/25 00:22:01;;;;;;;53.75;41.40;;;;;;;5.42;100.00;100684.38;5031072;28;20554;-78
2023/03/25 00:24:28;;;;;;;56.25;44.25;;;;;;;5.49;100.00;100681.84;5025751;28;20107;-78
2023/03/25 00:26:56;;;;;;;54.05;46.90;;;;;;;5.53;100.00;100677.88;5026108;28;20442;-78
2023/03/25 00:29:23;;;;;;;49.88;41.15;;;;;;;5.27;100.00;100673.72;5028072;28;20418;-78
2023/03/25 00:31:50;;;;;;;53.05;44.28;;;;;;;5.23;100.00;100690.88;5023976;28;20056;-78
2023/03/25 00:34:17;;;;;;;49.47;40.88;;;;;;;5.12;100.00;100675.44;5031014;28;20057;-78
2023/03/25 00:36:44;;;;;;;53.17;41.80;;;;;;;4.91;100.00;100678.66;5029155;28;20050;-78
2023/03/25 00:39:11;;;;;;;50.50;40.47;;;;;;;4.91;100.00;100678.66;5023505;28;20057;-78
2023/03/25 00:41:40;;;;;;;53.58;43.50;;;;;;;5.05;100.00;100669.22;5026043;28;20426;-78
2023/03/25 00:44:13;;;;;;;52.00;45.45;;;;;;;5.00;100.00;100663.66;5030686;28;20045;-78
2023/03/25 00:46:40;;;;;;;52.50;41.67;;;;;;;5.15;100.00;100669.03;5017335;28;20420;-78
2023/03/25 00:49:07;;;;;;;48.08;40.55;;;;;;;5.34;100.00;100660.69;5027238;28;20053;-78
2023/03/25 00:51:34;;;;;;;49.15;43.38;;;;;;;5.40;100.00;100661.81;5029288;28;20054;-78
2023/03/25 00:54:01;;;;;;;49.63;44.20;;;;;;;5.44;100.00;100652.56;5016997;28;20423;-78
2023/03/25 00:56:29;;;;;;;50.47;42.22;;;;;;;5.41;100.00;100651.09;5027134;28;20100;-78
2023/03/25 00:58:56;;;;;;;50.20;42.05;;;;;;;5.37;100.00;100657.72;5031020;28;20052;-78
2023/03/25 01:01:27;;;;;;;52.53;46.60;;;;;;;5.28;100.00;100646.41;5031890;28;20056;-78
2023/03/25 01:03:57;;;;;;;53.17;44.55;;;;;;;5.11;100.00;100649.28;5029027;28;20060;-78
2023/03/25 01:06:28;;;;;;;50.70;43.17;;;;;;;5.01;100.00;100644.22;5031588;28;20041;-78
2023/03/25 01:08:56;;;;;;;53.90;43.75;;;;;;;5.08;100.00;100642.53;5026755;28;20107;-78
2023/03/25 01:11:25;;;;;;;50.22;43.38;;;;;;;4.79;100.00;100638.72;5026233;28;20053;-78
2023/03/25 01:13:54;;;;;;;52.05;42.30;;;;;;;4.77;100.00;100640.69;5023101;28;20050;-78
2023/03/25 01:16:21;;;;;;;53.80;42.47;;;;;;;4.86;100.00;100633.59;5027116;28;20041;-78
2023/03/25 01:18:50;;;;;;;52.72;45.28;;;;;;;4.84;100.00;100638.19;5025516;28;20054;-78
2023/03/25 01:21:17;;;;;;;54.10;42.22;;;;;;;4.75;100.00;100639.22;5025329;28;20046;-78
2023/03/25 01:23:44;;;;;;;53.08;41.95;;;;;;;4.59;100.00;100638.28;5027862;28;20422;-78
2023/03/25 01:26:12;;;;;;;49.15;41.80;;;;;;;4.71;100.00;100641.38;5026853;28;20129;-78
2023/03/25 01:28:39;;;;;;;53.70;43.17;;;;;;;4.92;100.00;100632.91;5031325;28;20082;-78
2023/03/25 01:31:09;;;;;;;52.80;43.88;;;;;;;4.82;100.00;100633.13;5024900;28;20045;-78
2023/03/25 01:33:36;;;;;;;50.92;42.63;;;;;;;4.53;100.00;100633.69;5025328;28;20741;-78
2023/03/25 01:36:08;;;;;;;51.47;41.42;;;;;;;4.66;100.00;100637.59;5031192;28;20049;-78
2023/03/25 01:38:35;;;;;;;55.95;47.88;;;;;;;4.74;100.00;100632.31;5029665;28;20103;-78
2023/03/25 01:41:02;;;;;;;52.45;45.53;;;;;;;4.65;100.00;100625.44;5015273;28;20060;-78
2023/03/25 01:43:29;;;;;;;55.90;43.80;;;;;;;4.53;100.00;100619.72;5027026;28;20050;-78
2023/03/25 01:45:56;;;;;;;52.03;40.67;;;;;;;4.59;100.00;100626.94;5026316;28;20610;-78
2023/03/25 01:48:31;;;;;;;50.78;38.50;;;;;;;4.59;100.00;100621.69;5017261;28;20056;-78
2023/03/25 01:51:01;;;;;;;47.97;41.53;;;;;;;4.54;100.00;100616.94;5024735;28;20050;-78
2023/03/25 01:53:32;;;;;;;53.40;43.67;;;;;;;4.51;100.00;100619.09;5026335;28;20045;-78
2023/03/25 01:56:02;;;;;;;51.50;44.45;;;;;;;4.41;100.00;100616.63;5027891;28;20538;-78
2023/03/25 01:58:31;;;;;;;47.28;38.80;;;;;;;4.10;100.00;100613.91;5021440;28;20515;-78
2023/03/25 02:01:00;;;;;;;48.85;42.70;;;;;;;4.14;100.00;100617.81;5031390;28;20451;-78
2023/03/25 02:03:27;;;;;;;51.17;41.53;;;;;;;4.17;100.00;100606.97;5024027;28;20046;-78
2023/03/25 02:06:01;;;;;;;51.75;42.60;;;;;;;4.10;100.00;100609.44;5026436;28;20046;-78
2023/03/25 02:08:31;;;;;;;50.72;39.95;;;;;;;4.11;100.00;100599.75;5028413;28;20136;-78
2023/03/25 02:10:58;;;;;;;50.35;40.13;;;;;;;3.93;100.00;100602.56;5022020;28;20115;-78
2023/03/25 02:13:25;;;;;;;57.70;47.88;;;;;;;3.99;100.00;100596.63;5027655;28;20431;-78
2023/03/25 02:16:18;;;;;;;55.78;49.58;;;;;;;3.94;100.00;100593.72;5026281;28;20057;-78
2023/03/25 02:19:00;;;;;;;50.30;42.50;;;;;;;3.91;100.00;100586.16;5021725;28;20061;-78
2023/03/25 02:22:02;;;;;;;47.95;42.42;;;;;;;3.60;100.00;100581.56;5024325;28;20053;-78
2023/03/25 02:25:07;;;;;;;53.03;42.22;;;;;;;3.64;100.00;100582.06;5023011;28;20045;-78
2023/03/25 02:27:47;;;;;;;48.13;39.80;;;;;;;3.47;100.00;100583.03;5020266;28;20053;-78
2023/03/25 02:30:45;;;;;;;52.63;41.17;;;;;;;3.89;100.00;100585.50;5025684;28;20041;-78
2023/03/25 02:33:30;;;;;;;52.35;42.15;;;;;;;3.93;100.00;100581.53;5025490;28;20049;-78
2023/03/25 02:36:29;;;;;;;54.25;43.20;;;;;;;4.05;100.00;100577.56;5017042;28;20049;-78
2023/03/25 02:39:03;;;;;;;53.67;42.28;;;;;;;4.16;100.00;100573.78;5022171;28;20052;-78
2023/03/25 02:41:37;;;;;;;47.28;40.63;;;;;;;4.11;100.00;100573.47;5025129;28;20128;-78
2023/03/25 02:44:07;;;;;;;45.22;39.20;;;;;;;4.01;100.00;100567.59;5024375;28;20049;-78
2023/03/25 02:46:35;;;;;;;51.90;44.97;;;;;;;3.72;100.00;100573.34;5023396;28;20416;-78
2023/03/25 02:49:06;;;;;;;54.33;45.13;;;;;;;3.89;100.00;100562.66;5022747;28;20123;-78
2023/03/25 02:51:38;;;;;;;50.25;41.42;;;;;;;3.90;100.00;100555.59;5032178;28;20519;-78
2023/03/25 02:54:09;;;;;;;45.90;37.45;;;;;;;3.36;100.00;100558.75;5024087;28;20053;-78
2023/03/25 02:56:38;;;;;;;48.47;39.05;;;;;;;3.36;100.00;100564.00;5027751;28;20045;-78
2023/03/25 02:59:07;;;;;;;47.03;40.40;;;;;;;3.38;100.00;100562.00;5022947;28;20419;-78
2023/03/25 03:01:35;;;;;;;50.10;42.20;;;;;;;3.60;100.00;100554.47;5030058;28;20053;-78
2023/03/25 03:04:02;;;;;;;53.00;44.88;;;;;;;3.70;100.00;100555.13;5022891;28;20077;-78
2023/03/25 03:06:29;;;;;;;52.08;43.92;;;;;;;3.64;100.00;100558.41;5024893;28;20056;-78
2023/03/25 03:09:06;;;;;;;55.08;49.22;;;;;;;3.59;100.00;100555.44;5027493;28;20400;-78
2023/03/25 03:11:41;;;;;;;51.33;45.42;;;;;;;3.64;100.00;100553.97;5026171;28;20058;-78
2023/03/25 03:14:36;;;;;;;50.83;45.33;;;;;;;3.60;100.00;100552.69;5021280;28;20053;-78
2023/03/25 03:17:12;;;;;;;47.88;42.20;;;;;;;3.41;100.00;100548.53;5010122;28;20045;-78
2023/03/25 03:19:45;;;;;;;50.40;42.13;;;;;;;3.37;100.00;100541.19;5013726;28;20054;-78
2023/03/25 03:22:35;;;;;;;49.25;43.47;;;;;;;3.28;100.00;100552.66;5025120;28;20136;-78
2023/03/25 03:25:09;;;;;;;47.97;42.78;;;;;;;3.12;100.00;100546.41;5024497;28;20046;-78
2023/03/25 03:27:43;;;;;;;47.88;40.67;;;;;;;3.26;100.00;100544.09;5021531;28;20049;-78
2023/03/25 03:30:13;;;;;;;48.80;42.10;;;;;;;3.26;100.00;100551.97;5021119;28;20052;-78
2023/03/25 03:32:47;;;;;;;51.30;44.53;;;;;;;3.31;100.00;100554.94;5026572;28;20508;-78
2023/03/25 03:35:18;;;;;;;47.13;39.20;;;;;;;2.94;100.00;100553.56;5019982;28;20046;-78
2023/03/25 03:37:50;;;;;;;50.83;42.17;;;;;;;3.30;100.00;100546.25;5027634;28;20056;-77
2023/03/25 03:40:20;;;;;;;51.72;42.80;;;;;;;3.14;100.00;100546.22;5029899;28;20128;-78
2023/03/25 03:42:53;;;;;;;45.30;38.20;;;;;;;2.78;100.00;100548.25;5027047;28;20057;-78
2023/03/25 03:45:25;;;;;;;51.75;46.05;;;;;;;3.10;100.00;100543.09;5023625;28;20045;-78
2023/03/25 03:47:56;;;;;;;54.85;44.05;;;;;;;2.95;100.00;100548.16;5022431;28;20041;-78
2023/03/25 03:50:27;;;;;;;47.70;38.35;;;;;;;2.85;100.00;100546.66;5022124;28;20057;-78
2023/03/25 03:53:01;;;;;;;43.40;36.05;;;;;;;2.92;100.00;100547.66;5023047;28;20072;-78
2023/03/25 03:55:36;;;;;;;48.10;40.05;;;;;;;2.88;100.00;100549.78;5029733;28;20052;-78
2023/03/25 03:58:09;;;;;;;48.28;38.92;;;;;;;2.85;100.00;100551.91;5026843;28;20062;-78
2023/03/25 04:00:42;;;;;;;46.42;38.67;;;;;;;2.82;100.00;100554.84;5031619;28;20041;-78
2023/03/25 04:03:16;;;;;;;51.60;44.67;;;;;;;2.87;100.00;100553.38;5030863;28;20045;-78
2023/03/25 04:05:51;;;;;;;53.47;45.05;;;;;;;2.78;100.00;100551.69;5027649;28;20056;-78
2023/03/25 04:08:27;;;;;;;52.40;43.45;;;;;;;2.81;100.00;100550.56;5029635;28;20499;-78
2023/03/25 04:10:57;;;;;;;48.72;43.47;;;;;;;2.75;100.00;100552.88;5029068;28;20084;-78
2023/03/25 04:13:32;;;;;;;44.80;39.97;;;;;;;2.51;100.00;100558.00;5026247;28;20502;-78
2023/03/25 04:16:00;;;;;;;41.60;36.53;;;;;;;2.89;100.00;100558.47;5026063;28;20053;-78
2023/03/25 04:18:27;;;;;;;46.13;37.58;;;;;;;2.90;100.00;100557.47;5026384;28;20074;-78
2023/03/25 04:20:54;;;;;;;45.95;37.08;;;;;;;2.96;100.00;100556.84;5026487;28;20076;-78
2023/03/25 04:23:22;;;;;;;45.92;39.58;;;;;;;2.74;100.00;100563.50;5027358;28;20053;-78
2023/03/25 04:25:51;;;;;;;43.58;37.13;;;;;;;2.40;100.00;100561.72;5027948;28;20041;-78
2023/03/25 04:28:19;;;;;;;43.80;37.55;;;;;;;2.67;100.00;100552.00;5027857;28;20038;-78
2023/03/25 04:30:49;;;;;;;44.28;38.90;;;;;;;2.93;100.00;100557.97;5026012;28;20065;-78
2023/03/25 04:33:16;;;;;;;48.38;41.75;;;;;;;2.81;100.00;100559.25;5029355;28;20050;-78
2023/03/25 04:35:43;;;;;;;42.97;37.85;;;;;;;2.80;100.00;100562.88;5032475;28;20057;-78
2023/03/25 04:38:10;;;;;;;46.47;37.90;;;;;;;2.63;100.00;100566.41;5026759;28;20602;-78
2023/03/25 04:40:39;;;;;;;84.97;55.50;;;;;;;2.92;100.00;100563.41;5031183;28;20527;-78
2023/03/25 04:43:07;;;;;;;158.10;85.72;;;;;;;3.01;100.00;100566.88;5025691;28;20060;-78
2023/03/25 04:45:35;;;;;;;119.05;69.07;;;;;;;3.05;100.00;100574.25;5025424;28;20053;-78
2023/03/25 04:48:04;;;;;;;104.03;65.47;;;;;;;3.13;100.00;100566.41;5024852;28;20049;-78
2023/03/25 04:50:32;;;;;;;87.68;60.25;;;;;;;3.14;100.00;100565.41;5025206;28;20128;-78
2023/03/25 04:53:01;;;;;;;88.90;58.72;;;;;;;3.18;100.00;100565.94;5028067;28;20434;-78
2023/03/25 04:55:28;;;;;;;85.82;60.15;;;;;;;3.35;100.00;100564.13;5028203;28;20408;-78
2023/03/25 04:57:55;;;;;;;93.40;64.30;;;;;;;3.72;100.00;100573.34;5022379;28;20107;-78
2023/03/25 05:00:24;;;;;;;91.82;61.10;;;;;;;3.89;100.00;100575.78;5028166;28;20491;-78
2023/03/25 05:02:53;;;;;;;72.18;53.22;;;;;;;3.84;100.00;100567.63;5029508;28;20046;-78
2023/03/25 05:05:23;;;;;;;78.65;59.75;;;;;;;3.98;100.00;100571.34;5029288;28;20057;-78
2023/03/25 05:07:52;;;;;;;99.68;64.13;;;;;;;4.14;100.00;100570.50;5026573;28;20038;-78
2023/03/25 05:10:20;;;;;;;106.80;68.93;;;;;;;4.28;100.00;100576.91;5024468;28;20401;-78
2023/03/25 05:12:47;;;;;;;99.07;64.95;;;;;;;4.44;100.00;100568.13;5026256;28;20511;-78
2023/03/25 05:15:17;;;;;;;97.45;63.70;;;;;;;4.80;100.00;100571.13;4049765;28;10022060;-78
2023/03/25 05:17:44;;;;;;;101.15;62.45;;;;;;;5.03;100.00;100566.72;5012913;28;20337;-78
2023/03/25 05:20:12;;;;;;;163.57;87.88;;;;;;;5.21;100.00;100569.09;5020021;28;20052;-78
2023/03/25 05:22:40;;;;;;;196.32;101.00;;;;;;;5.27;100.00;100567.59;5017944;28;20474;-78
2023/03/25 05:25:09;;;;;;;127.70;77.65;;;;;;;5.35;100.00;100558.78;5014889;28;20111;-78
2023/03/25 05:27:37;;;;;;;126.90;76.15;;;;;;;5.58;100.00;100566.69;5017007;28;20050;-78
2023/03/25 05:30:05;;;;;;;87.00;57.95;;;;;;;5.92;100.00;100571.50;5016734;28;20069;-78
2023/03/25 05:32:32;;;;;;;76.25;53.15;;;;;;;6.29;100.00;100575.94;5015484;28;20050;-78
2023/03/25 05:34:59;;;;;;;53.83;47.47;;;;;;;6.46;100.00;100573.16;5016534;28;20139;-78
2023/03/25 05:37:26;;;;;;;50.10;43.08;;;;;;;6.63;100.00;100569.31;5021362;28;20541;-78
2023/03/25 05:39:55;;;;;;;54.20;46.70;;;;;;;6.79;100.00;100576.22;5021385;28;20517;-78
2023/03/25 05:42:22;;;;;;;50.05;44.40;;;;;;;6.93;100.00;100570.09;5021160;28;20053;-78
2023/03/25 05:44:50;;;;;;;83.55;62.92;;;;;;;7.06;100.00;100577.34;5018493;28;20053;-78
2023/03/25 05:47:20;;;;;;;224.05;141.10;;;;;;;7.34;100.00;100572.16;5019567;28;20076;-78
2023/03/25 05:49:47;;;;;;;100.82;75.28;;;;;;;7.31;100.00;100578.63;5022741;28;20046;-78
2023/03/25 05:52:15;;;;;;;95.75;69.25;;;;;;;7.48;100.00;100571.28;5021944;28;20064;-78
2023/03/25 05:54:44;;;;;;;43.38;38.45;;;;;;;7.99;100.00;100573.75;5020217;28;20412;-78
2023/03/25 05:57:13;;;;;;;41.15;37.15;;;;;;;8.16;100.00;100571.59;5024510;28;20127;-78
2023/03/25 05:59:40;;;;;;;48.53;43.40;;;;;;;8.42;100.00;100565.69;5018913;28;20045;-78
2023/03/25 06:02:07;;;;;;;44.63;39.95;;;;;;;8.53;100.00;100569.59;5019479;28;20088;-78
2023/03/25 06:04:36;;;;;;;46.15;39.42;;;;;;;8.53;100.00;100559.03;5024023;28;20085;-78
2023/03/25 06:07:12;;;;;;;44.42;39.83;;;;;;;8.83;100.00;100562.22;5023223;28;20107;-78
2023/03/25 06:09:44;;;;;;;41.00;37.10;;;;;;;8.79;100.00;100557.53;5021134;28;20054;-78
2023/03/25 06:12:13;;;;;;;39.75;35.78;;;;;;;9.10;100.00;100563.13;5020777;28;20066;-78
2023/03/25 06:14:41;;;;;;;40.83;36.90;;;;;;;9.20;100.00;100559.25;5025252;28;20041;-78
2023/03/25 06:17:10;;;;;;;39.42;35.33;;;;;;;9.33;100.00;100560.13;5028151;28;20507;-78
2023/03/25 06:19:38;;;;;;;38.08;34.30;;;;;;;9.55;100.00;100550.16;5030893;28;20123;-78
2023/03/25 06:22:08;;;;;;;47.65;42.97;;;;;;;9.66;100.00;100558.53;5026704;28;20772;-78
2023/03/25 06:24:35;;;;;;;43.67;39.20;;;;;;;9.78;100.00;100563.03;5024925;28;20088;-78
2023/03/25 06:27:02;;;;;;;44.83;40.35;;;;;;;9.82;100.00;100563.41;5029702;28;20592;-78
2023/03/25 06:29:30;;;;;;;43.47;39.42;;;;;;;10.08;100.00;100573.22;5026576;28;20576;-78
2023/03/25 06:31:57;;;;;;;52.10;46.97;;;;;;;10.16;100.00;100574.81;5027843;28;20045;-78
2023/03/25 06:34:25;;;;;;;40.15;36.45;;;;;;;10.53;100.00;100568.88;5031949;28;20049;-78
2023/03/25 06:36:53;;;;;;;40.22;36.38;;;;;;;10.67;100.00;100571.47;5029472;28;20080;-78
2023/03/25 06:39:20;;;;;;;41.75;38.13;;;;;;;10.76;100.00;100568.34;5030081;28;20049;-78
2023/03/25 06:41:47;;;;;;;39.03;35.72;;;;;;;10.91;100.00;100570.75;5028673;28;20427;-78
2023/03/25 06:44:14;;;;;;;42.50;38.80;;;;;;;11.34;100.00;100556.81;5027535;28;20101;-78
2023/03/25 06:46:42;;;;;;;39.47;35.83;;;;;;;11.53;100.00;100562.19;5023935;28;20128;-78
2023/03/25 06:49:09;;;;;;;37.80;34.35;;;;;;;11.68;100.00;100555.56;5023578;28;20052;-78
2023/03/25 06:51:36;;;;;;;39.38;35.72;;;;;;;12.02;100.00;100563.28;5029770;28;20052;-78
2023/03/25 06:54:03;;;;;;;39.17;35.67;;;;;;;12.02;100.00;100564.09;5027901;28;20049;-78
2023/03/25 06:56:30;;;;;;;44.38;40.22;;;;;;;12.36;100.00;100557.41;5027330;28;20136;-78
2023/03/25 06:58:57;;;;;;;42.25;38.00;;;;;;;12.72;100.00;100561.09;5029487;28;20038;-78
2023/03/25 07:01:24;;;;;;;38.83;35.63;;;;;;;12.80;100.00;100563.47;5029361;28;20045;-78
2023/03/25 07:03:52;;;;;;;38.42;35.05;;;;;;;13.02;100.00;100568.31;5024906;28;20050;-78
2023/03/25 07:06:21;;;;;;;38.92;35.45;;;;;;;13.13;100.00;100556.88;5024178;28;20045;-78
2023/03/25 07:08:48;;;;;;;40.13;36.92;;;;;;;13.20;100.00;100559.47;5025195;28;20052;-78
2023/03/25 07:11:17;;;;;;;43.45;39.72;;;;;;;13.48;100.00;100553.53;5029656;28;20543;-78
2023/03/25 07:13:44;;;;;;;38.65;35.50;;;;;;;13.58;100.00;100555.63;5025640;28;20088;-78
2023/03/25 07:16:11;;;;;;;40.80;37.42;;;;;;;14.11;100.00;100549.41;5027754;28;20057;-78
2023/03/25 07:18:38;;;;;;;36.58;33.67;;;;;;;14.02;100.00;100550.81;5023401;28;20586;-78
2023/03/25 07:21:07;;;;;;;38.65;35.75;;;;;;;14.25;100.00;100549.97;5026740;28;20053;-78
2023/03/25 07:23:34;;;;;;;40.55;37.10;;;;;;;14.55;100.00;100552.50;5019257;28;20046;-78
2023/03/25 07:26:01;;;;;;;34.72;32.13;;;;;;;13.84;100.00;100549.06;5024421;28;20491;-78
2023/03/25 07:28:27;;;;;;;35.00;32.20;;;;;;;14.29;100.00;100551.13;5024981;28;20045;-78
2023/03/25 07:30:54;;;;;;;39.15;35.88;;;;;;;14.35;100.00;100558.22;5030151;28;20639;-78
2023/03/25 07:33:21;;;;;;;40.30;37.03;;;;;;;15.22;100.00;100558.09;5023787;28;20050;-78
2023/03/25 07:35:48;;;;;;;39.25;35.95;;;;;;;15.35;100.00;100557.78;5017773;28;20065;-78
2023/03/25 07:38:16;;;;;;;33.10;30.40;;;;;;;15.34;100.00;100545.47;5029088;28;20771;-78
2023/03/25 07:40:43;;;;;;;49.97;45.67;;;;;;;15.80;100.00;100540.06;5025520;28;20041;-78
2023/03/25 07:43:10;;;;;;;38.63;35.63;;;;;;;15.91;100.00;100541.03;5025998;28;20060;-78
2023/03/25 07:45:37;;;;;;;37.22;34.42;;;;;;;15.83;100.00;100547.63;5026266;28;20423;-79
2023/03/25 07:48:04;;;;;;;32.22;29.42;;;;;;;15.78;100.00;100547.53;5025866;28;20046;-79
2023/03/25 07:50:31;;;;;;;28.80;26.63;;;;;;;15.37;100.00;100552.19;5023521;28;20049;-78
2023/03/25 07:52:58;;;;;;;30.40;27.35;;;;;;;15.04;100.00;100551.06;5021607;28;20038;-78
2023/03/25 07:55:26;;;;;;;30.33;27.45;;;;;;;15.60;100.00;100553.09;5025822;28;20049;-78
2023/03/25 07:57:53;;;;;;;25.83;23.50;;;;;;;15.39;100.00;100547.41;5026908;28;20042;-78
2023/03/25 08:00:20;;;;;;;25.95;23.58;;;;;;;14.88;100.00;100557.97;5032875;28;20046;-78
2023/03/25 08:02:47;;;;;;;23.23;21.13;;;;;;;15.72;100.00;100556.53;5025621;28;20060;-78
2023/03/25 08:05:20;;;;;;;24.42;21.88;;;;;;;15.40;100.00;100557.06;5023878;28;20058;-78
2023/03/25 08:07:47;;;;;;;;;;;;;;;15.04;100.00;100559.09;5020659;28;20046;-78
2023/03/25 08:10:15;;;;;;;22.00;20.25;;;;;;;15.93;100.00;100539.72;5030097;28;19929;-78
2023/03/25 08:12:44;;;;;;;23.88;21.67;;;;;;;14.36;100.00;100554.47;5023266;28;20046;-78
2023/03/25 08:15:12;;;;;;;23.20;21.30;;;;;;;14.59;100.00;100554.47;5014653;28;20050;-78
2023/03/25 08:17:39;;;;;;;28.52;26.13;;;;;;;15.77;100.00;100553.94;5020409;28;20055;-78
2023/03/25 08:20:08;;;;;;;24.17;22.23;;;;;;;14.80;100.00;100545.00;5028722;28;20045;-78
2023/03/25 08:22:35;;;;;;;27.33;25.15;;;;;;;15.54;100.00;100538.81;5019483;28;20050;-78
2023/03/25 08:25:02;;;;;;;22.90;20.85;;;;;;;17.18;100.00;100542.59;5029006;28;20128;-78
2023/03/25 08:27:29;;;;;;;24.33;22.42;;;;;;;17.17;100.00;100537.50;5025958;28;20050;-78
2023/03/25 08:29:58;;;;;;;27.08;24.65;;;;;;;14.84;100.00;100537.31;5030154;28;20557;-78
2023/03/25 08:32:27;;;;;;;24.30;22.30;;;;;;;15.67;100.00;100518.94;5027689;28;20081;-78
2023/03/25 08:34:54;;;;;;;24.33;22.38;;;;;;;16.17;100.00;100526.13;5030252;28;20045;-78
2023/03/25 08:37:22;;;;;;;23.10;21.10;;;;;;;16.76;100.00;100520.97;5024440;28;20045;-78
2023/03/25 08:39:50;;;;;;;24.92;22.92;;;;;;;17.02;100.00;100516.69;5028139;28;20037;-78
2023/03/25 08:42:17;;;;;;;25.15;23.10;;;;;;;15.56;100.00;100518.78;5029781;28;20115;-78
2023/03/25 08:44:44;;;;;;;24.35;22.27;;;;;;;17.15;100.00;100518.16;5027323;28;20053;-78
2023/03/25 08:47:12;;;;;;;24.33;22.42;;;;;;;16.98;100.00;100518.28;5028836;28;20058;-78
2023/03/25 08:49:39;;;;;;;25.20;23.15;;;;;;;18.21;100.00;100516.53;5027159;28;20042;-78
2023/03/25 08:52:07;;;;;;;22.98;21.08;;;;;;;19.52;91.57;100505.56;5026867;28;20053;-78
2023/03/25 08:54:34;;;;;;;23.98;22.02;;;;;;;18.86;98.03;100509.00;5029423;28;20418;-79
2023/03/25 08:57:01;;;;;;;23.83;21.95;;;;;;;18.82;84.81;100506.03;5027749;28;20574;-78
2023/03/25 08:59:28;;;;;;;23.90;22.05;;;;;;;18.33;96.71;100494.81;5031898;28;20045;-78
2023/03/25 09:01:55;;;;;;;23.17;21.30;;;;;;;17.22;100.00;100483.88;5022157;28;20064;-78
2023/03/25 09:04:23;;;;;;;22.00;20.25;;;;;;;16.40;100.00;100487.53;5029640;28;20053;-78
2023/03/25 09:06:50;;;;;;;22.85;20.85;;;;;;;16.47;100.00;100488.19;5024608;28;20042;-78
2023/03/25 09:09:17;;;;;;;24.98;22.60;;;;;;;16.75;100.00;100480.97;5030746;28;20180;-78
2023/03/25 09:11:44;;;;;;;23.38;21.38;;;;;;;17.32;100.00;100486.66;5032472;28;20057;-78
2023/03/25 09:14:11;;;;;;;25.55;23.45;;;;;;;16.77;100.00;100489.63;5025711;28;20053;-78
2023/03/25 09:16:40;;;;;;;24.52;22.50;;;;;;;18.79;100.00;100486.91;5029363;28;20060;-78
2023/03/25 09:19:08;;;;;;;26.08;23.65;;;;;;;16.20;100.00;100491.59;5025535;28;20049;-78
2023/03/25 09:21:36;;;;;;;24.42;22.20;;;;;;;15.64;100.00;100493.47;5032900;28;20045;-78
2023/03/25 09:24:03;;;;;;;25.52;23.35;;;;;;;16.70;100.00;100490.59;5026716;28;20053;-78
2023/03/25 09:26:30;;;;;;;27.92;25.25;;;;;;;16.80;100.00;100494.47;5031056;28;20052;-78
2023/03/25 09:28:59;;;;;;;25.58;23.17;;;;;;;17.70;100.00;100476.72;5031295;28;20046;-78
2023/03/25 09:31:27;;;;;;;24.65;22.63;;;;;;;18.53;100.00;100481.44;5029385;28;20103;-78
2023/03/25 09:33:54;;;;;;;25.20;22.75;;;;;;;17.49;100.00;100473.09;5028793;28;20041;-78
2023/03/25 09:36:21;;;;;;;26.27;23.83;;;;;;;16.71;100.00;100469.97;5025998;28;20415;-78
2023/03/25 09:38:49;;;;;;;27.20;25.05;;;;;;;18.00;100.00;100468.06;5028937;28;20045;-78
2023/03/25 09:41:41;;;;;;;24.10;22.10;;;;;;;18.12;100.00;100475.91;5030996;28;20069;-78
2023/03/25 09:44:17;;;;;;;25.05;22.98;;;;;;;18.52;100.00;100471.78;5026176;28;20049;-78
2023/03/25 09:46:44;;;;;;;25.48;23.38;;;;;;;18.20;100.00;100455.78;5020802;28;20053;-78
2023/03/25 09:49:16;;;;;;;25.92;23.50;;;;;;;20.00;100.00;100454.81;5031186;28;20120;-77
2023/03/25 09:51:45;;;;;;;25.63;23.63;;;;;;;17.56;99.81;100460.25;5029585;28;20046;-78
2023/03/25 09:54:20;;;;;;;24.38;22.38;;;;;;;19.20;100.00;100458.97;5020209;28;20053;-78
2023/03/25 09:56:48;;;;;;;24.70;22.60;;;;;;;20.12;100.00;100458.00;5027296;28;20050;-78
2023/03/25 09:59:18;;;;;;;22.67;20.85;;;;;;;18.77;93.34;100463.78;5034000;28;20045;-78
2023/03/25 10:01:52;;;;;;;23.35;21.35;;;;;;;19.49;100.00;100455.72;5029101;28;20053;-78
2023/03/25 10:04:50;;;;;;;24.55;22.48;;;;;;;17.50;100.00;100452.41;5031120;28;20060;-78
2023/03/25 10:07:36;;;;;;;27.60;25.27;;;;;;;18.17;100.00;100461.69;5028169;28;20111;-78
2023/03/25 10:10:12;;;;;;;25.75;23.65;;;;;;;18.76;100.00;100456.00;5033826;28;20045;-78
2023/03/25 10:12:45;;;;;;;24.10;21.90;;;;;;;19.38;93.49;100443.34;5023846;28;20053;-78
2023/03/25 10:15:26;;;;;;;24.80;22.60;;;;;;;19.02;98.46;100458.69;5026392;28;20061;-78
2023/03/25 10:18:09;;;;;;;23.87;21.87;;;;;;;19.38;91.77;100449.53;5022256;28;20049;-78
2023/03/25 10:20:47;;;;;;;22.65;20.60;;;;;;;18.69;89.29;100453.50;5029443;28;20037;-78
2023/03/25 10:23:22;;;;;;;23.52;21.52;;;;;;;18.14;94.04;100454.94;5022918;28;20076;-78
2023/03/25 10:25:57;;;;;;;23.83;21.67;;;;;;;16.78;100.00;100445.63;5023020;28;20053;-78
2023/03/25 10:28:31;;;;;;;26.42;24.13;;;;;;;19.67;90.92;100447.13;5024365;28;20060;-78
2023/03/25 10:31:03;;;;;;;24.00;21.90;;;;;;;20.33;87.87;100446.06;5019972;28;20058;-78
2023/03/25 10:33:36;;;;;;;25.67;23.35;;;;;;;20.41;93.88;100443.88;5029110;28;20052;-78
2023/03/25 10:36:05;;;;;;;24.95;22.73;;;;;;;20.74;81.40;100434.25;5029933;28;20060;-78
2023/03/25 10:38:36;;;;;;;26.27;24.02;;;;;;;20.57;79.65;100440.03;5029552;28;20053;-78
2023/03/25 10:41:14;;;;;;;27.42;24.92;;;;;;;20.38;80.97;100430.94;5029520;28;20045;-78
2023/03/25 10:43:43;;;;;;;27.67;25.27;;;;;;;21.79;87.41;100427.41;5029226;28;20136;-78
2023/03/25 10:46:18;;;;;;;26.55;24.13;;;;;;;20.68;81.76;100425.38;5028074;28;20060;-78
2023/03/25 10:48:47;;;;;;;25.50;23.38;;;;;;;19.60;82.83;100421.50;5028961;28;20045;-78
2023/03/25 10:51:17;;;;;;;27.40;25.10;;;;;;;20.79;76.38;100424.25;5028528;28;20050;-78
2023/03/25 10:53:47;;;;;;;28.85;26.45;;;;;;;18.80;97.46;100419.41;5028907;28;20041;-78
2023/03/25 10:56:19;;;;;;;28.23;25.92;;;;;;;20.04;85.31;100418.97;5025938;28;20073;-78
2023/03/25 10:58:50;;;;;;;25.05;23.05;;;;;;;20.98;81.11;100413.56;5029653;28;20052;-78
2023/03/25 11:01:19;;;;;;;23.35;21.38;;;;;;;21.41;71.47;100400.22;5026129;28;20071;-78
2023/03/25 11:03:51;;;;;;;24.50;22.60;;;;;;;19.93;78.52;100393.13;5025932;28;20064;-78
2023/03/25 11:06:25;;;;;;;27.00;24.70;;;;;;;19.79;81.77;100390.22;5025356;28;20163;-78
2023/03/25 11:09:14;;;;;;;26.67;24.58;;;;;;;19.60;88.87;100389.97;5028930;28;20103;-79
2023/03/25 11:11:43;;;;;;;26.65;24.30;;;;;;;19.67;95.63;100397.81;5016305;28;20050;-78
2023/03/25 11:14:11;;;;;;;26.77;24.48;;;;;;;20.05;100.00;100380.13;5025289;28;20053;-78
2023/03/25 11:16:43;;;;;;;26.25;24.10;;;;;;;22.16;81.85;100377.19;5025946;28;20061;-78
2023/03/25 11:19:19;;;;;;;26.08;23.55;;;;;;;22.43;81.03;100373.88;5025092;28;20042;-78
2023/03/25 11:21:47;;;;;;;25.85;23.77;;;;;;;22.83;68.66;100369.72;5026288;28;20516;-78